sensor_id;sensor_type;location;lat;lon;timestamp;P1;durP1;ratioP1;P2;durP2;ratioP2
85204;SDS011;75582;47.444;21.396;2024-02-23T00:00:25;11.38;;;6.07;;
85204;SDS011;75582;47.444;21.396;2024-02-23T00:01:51;14.18;;;6.15;;
85204;SDS011;75582;47.444;21.396;2024-02-23T00:03:17;10.77;;;5.55;;
85204;SDS011;75582;47.444;21.396;2024-02-23T00:04:43;11.23;;;6.25;;
85204;SDS011;75582;47.444;21.396;2024-02-23T00:06:10;11.20;;;6.57;;
85204;SDS011;75582;47.444;21.396;2024-02-23T00:07:36;10.63;;;5.97;;
85204;SDS011;75582;47.444;21.396;2024-02-23T00:09:02;9.60;;;6.13;;
85204;SDS011;75582;47.444;21.396;2024-02-23T00:10:28;12.55;;;6.60;;
85204;SDS011;75582;47.444;21.396;2024-02-23T00:11:54;12.82;;;6.78;;
85204;SDS011;75582;47.444;21.396;2024-02-23T00:13:20;11.95;;;6.45;;
85204;SDS011;75582;47.444;21.396;2024-02-23T00:14:46;13.63;;;6.22;;
85204;SDS011;75582;47.444;21.396;2024-02-23T00:16:12;11.88;;;6.65;;
85204;SDS011;75582;47.444;21.396;2024-02-23T00:17:44;10.13;;;5.82;;
85204;SDS011;75582;47.444;21.396;2024-02-23T00:19:10;11.93;;;6.43;;
85204;SDS011;75582;47.444;21.396;2024-02-23T00:20:36;11.38;;;6.15;;
85204;SDS011;75582;47.444;21.396;2024-02-23T00:22:02;11.60;;;5.90;;
85204;SDS011;75582;47.444;21.396;2024-02-23T00:23:28;13.48;;;6.05;;
85204;SDS011;75582;47.444;21.396;2024-02-23T00:24:54;15.18;;;6.03;;
85204;SDS011;75582;47.444;21.396;2024-02-23T00:26:20;10.82;;;6.50;;
85204;SDS011;75582;47.444;21.396;2024-02-23T00:27:46;8.73;;;5.63;;
85204;SDS011;75582;47.444;21.396;2024-02-23T00:29:12;8.65;;;5.22;;
85204;SDS011;75582;47.444;21.396;2024-02-23T00:30:39;11.55;;;6.75;;
85204;SDS011;75582;47.444;21.396;2024-02-23T00:32:05;10.27;;;5.45;;
85204;SDS011;75582;47.444;21.396;2024-02-23T00:33:32;11.95;;;6.30;;
85204;SDS011;75582;47.444;21.396;2024-02-23T00:34:58;11.18;;;5.35;;
85204;SDS011;75582;47.444;21.396;2024-02-23T00:36:24;8.77;;;5.27;;
85204;SDS011;75582;47.444;21.396;2024-02-23T00:37:50;9.45;;;5.28;;
85204;SDS011;75582;47.444;21.396;2024-02-23T00:39:16;11.25;;;6.13;;
85204;SDS011;75582;47.444;21.396;2024-02-23T00:40:42;10.50;;;5.75;;
85204;SDS011;75582;47.444;21.396;2024-02-23T00:42:08;10.55;;;5.45;;
85204;SDS011;75582;47.444;21.396;2024-02-23T00:43:40;8.63;;;5.00;;
85204;SDS011;75582;47.444;21.396;2024-02-23T00:45:07;9.15;;;5.97;;
85204;SDS011;75582;47.444;21.396;2024-02-23T00:46:33;12.05;;;6.43;;
85204;SDS011;75582;47.444;21.396;2024-02-23T00:48:00;13.82;;;6.75;;
85204;SDS011;75582;47.444;21.396;2024-02-23T00:49:26;11.20;;;5.75;;
85204;SDS011;75582;47.444;21.396;2024-02-23T00:50:52;12.27;;;6.47;;
85204;SDS011;75582;47.444;21.396;2024-02-23T00:52:18;12.20;;;6.20;;
85204;SDS011;75582;47.444;21.396;2024-02-23T00:53:44;10.20;;;5.93;;
85204;SDS011;75582;47.444;21.396;2024-02-23T00:55:10;10.30;;;6.03;;
85204;SDS011;75582;47.444;21.396;2024-02-23T00:56:36;10.90;;;6.45;;
85204;SDS011;75582;47.444;21.396;2024-02-23T00:58:02;8.63;;;5.63;;
85204;SDS011;75582;47.444;21.396;2024-02-23T00:59:29;9.93;;;5.68;;
85204;SDS011;75582;47.444;21.396;2024-02-23T01:00:55;11.77;;;6.20;;
85204;SDS011;75582;47.444;21.396;2024-02-23T01:02:21;11.25;;;6.13;;
85204;SDS011;75582;47.444;21.396;2024-02-23T01:03:47;11.48;;;5.68;;
85204;SDS011;75582;47.444;21.396;2024-02-23T01:05:13;10.00;;;5.30;;
85204;SDS011;75582;47.444;21.396;2024-02-23T01:06:39;12.70;;;5.82;;
85204;SDS011;75582;47.444;21.396;2024-02-23T01:08:14;12.23;;;6.82;;
85204;SDS011;75582;47.444;21.396;2024-02-23T01:09:40;12.63;;;5.82;;
85204;SDS011;75582;47.444;21.396;2024-02-23T01:11:19;12.85;;;6.07;;
85204;SDS011;75582;47.444;21.396;2024-02-23T01:12:45;12.18;;;5.20;;
85204;SDS011;75582;47.444;21.396;2024-02-23T01:14:11;11.05;;;5.70;;
85204;SDS011;75582;47.444;21.396;2024-02-23T01:15:37;11.57;;;6.85;;
85204;SDS011;75582;47.444;21.396;2024-02-23T01:17:03;10.07;;;6.00;;
85204;SDS011;75582;47.444;21.396;2024-02-23T01:18:29;11.82;;;5.53;;
85204;SDS011;75582;47.444;21.396;2024-02-23T01:19:55;9.77;;;5.73;;
85204;SDS011;75582;47.444;21.396;2024-02-23T01:21:21;9.40;;;5.47;;
85204;SDS011;75582;47.444;21.396;2024-02-23T01:22:47;13.90;;;5.85;;
85204;SDS011;75582;47.444;21.396;2024-02-23T01:24:13;10.05;;;5.63;;
85204;SDS011;75582;47.444;21.396;2024-02-23T01:25:39;9.70;;;5.70;;
85204;SDS011;75582;47.444;21.396;2024-02-23T01:27:06;12.25;;;5.68;;
85204;SDS011;75582;47.444;21.396;2024-02-23T01:28:32;9.13;;;5.32;;
85204;SDS011;75582;47.444;21.396;2024-02-23T01:29:58;9.68;;;5.50;;
85204;SDS011;75582;47.444;21.396;2024-02-23T01:31:24;7.57;;;4.97;;
85204;SDS011;75582;47.444;21.396;2024-02-23T01:32:50;11.45;;;5.55;;
85204;SDS011;75582;47.444;21.396;2024-02-23T01:34:16;9.70;;;5.50;;
85204;SDS011;75582;47.444;21.396;2024-02-23T01:35:42;10.05;;;5.28;;
85204;SDS011;75582;47.444;21.396;2024-02-23T01:37:08;9.25;;;5.40;;
85204;SDS011;75582;47.444;21.396;2024-02-23T01:38:34;9.85;;;5.38;;
85204;SDS011;75582;47.444;21.396;2024-02-23T01:40:00;8.98;;;5.03;;
85204;SDS011;75582;47.444;21.396;2024-02-23T01:41:26;9.82;;;4.93;;
85204;SDS011;75582;47.444;21.396;2024-02-23T01:43:02;12.77;;;4.97;;
85204;SDS011;75582;47.444;21.396;2024-02-23T01:44:29;9.82;;;5.38;;
85204;SDS011;75582;47.444;21.396;2024-02-23T01:45:55;9.60;;;5.15;;
85204;SDS011;75582;47.444;21.396;2024-02-23T01:47:21;12.45;;;5.53;;
85204;SDS011;75582;47.444;21.396;2024-02-23T01:48:48;9.53;;;5.30;;
85204;SDS011;75582;47.444;21.396;2024-02-23T01:50:14;9.27;;;5.28;;
85204;SDS011;75582;47.444;21.396;2024-02-23T01:51:40;10.15;;;5.28;;
85204;SDS011;75582;47.444;21.396;2024-02-23T01:53:06;11.05;;;5.57;;
85204;SDS011;75582;47.444;21.396;2024-02-23T01:54:32;8.30;;;5.07;;
85204;SDS011;75582;47.444;21.396;2024-02-23T01:55:59;10.43;;;5.10;;
85204;SDS011;75582;47.444;21.396;2024-02-23T01:57:25;8.95;;;5.30;;
85204;SDS011;75582;47.444;21.396;2024-02-23T01:58:51;13.27;;;4.88;;
85204;SDS011;75582;47.444;21.396;2024-02-23T02:00:18;9.23;;;5.38;;
85204;SDS011;75582;47.444;21.396;2024-02-23T02:01:46;9.70;;;4.65;;
85204;SDS011;75582;47.444;21.396;2024-02-23T02:03:13;9.33;;;4.67;;
85204;SDS011;75582;47.444;21.396;2024-02-23T02:04:39;10.23;;;4.85;;
85204;SDS011;75582;47.444;21.396;2024-02-23T02:06:05;11.35;;;5.43;;
85204;SDS011;75582;47.444;21.396;2024-02-23T02:07:32;7.93;;;4.50;;
85204;SDS011;75582;47.444;21.396;2024-02-23T02:08:58;9.00;;;5.10;;
85204;SDS011;75582;47.444;21.396;2024-02-23T02:10:24;10.55;;;5.03;;
85204;SDS011;75582;47.444;21.396;2024-02-23T02:11:51;7.45;;;4.00;;
85204;SDS011;75582;47.444;21.396;2024-02-23T02:13:17;9.23;;;4.95;;
85204;SDS011;75582;47.444;21.396;2024-02-23T02:14:43;9.38;;;5.18;;
85204;SDS011;75582;47.444;21.396;2024-02-23T02:16:09;7.88;;;4.43;;
85204;SDS011;75582;47.444;21.396;2024-02-23T02:17:36;8.50;;;4.90;;
85204;SDS011;75582;47.444;21.396;2024-02-23T02:19:12;8.48;;;4.82;;
85204;SDS011;75582;47.444;21.396;2024-02-23T02:20:40;10.77;;;4.85;;
85204;SDS011;75582;47.444;21.396;2024-02-23T02:22:19;8.98;;;4.68;;
85204;SDS011;75582;47.444;21.396;2024-02-23T02:23:45;10.05;;;4.53;;
85204;SDS011;75582;47.444;21.396;2024-02-23T02:25:13;9.77;;;5.00;;
85204;SDS011;75582;47.444;21.396;2024-02-23T02:26:41;9.98;;;5.20;;
85204;SDS011;75582;47.444;21.396;2024-02-23T02:28:08;6.70;;;3.25;;
85204;SDS011;75582;47.444;21.396;2024-02-23T02:29:35;5.93;;;3.40;;
85204;SDS011;75582;47.444;21.396;2024-02-23T02:31:01;10.70;;;3.72;;
85204;SDS011;75582;47.444;21.396;2024-02-23T02:32:28;8.47;;;3.80;;
85204;SDS011;75582;47.444;21.396;2024-02-23T02:33:54;6.95;;;3.90;;
85204;SDS011;75582;47.444;21.396;2024-02-23T02:35:20;4.40;;;3.30;;
85204;SDS011;75582;47.444;21.396;2024-02-23T02:36:46;7.07;;;3.25;;
85204;SDS011;75582;47.444;21.396;2024-02-23T02:38:12;7.03;;;3.53;;
85204;SDS011;75582;47.444;21.396;2024-02-23T02:39:38;4.85;;;3.00;;
85204;SDS011;75582;47.444;21.396;2024-02-23T02:41:04;5.43;;;3.10;;
85204;SDS011;75582;47.444;21.396;2024-02-23T02:42:30;6.00;;;3.17;;
85204;SDS011;75582;47.444;21.396;2024-02-23T02:43:56;7.88;;;3.33;;
85204;SDS011;75582;47.444;21.396;2024-02-23T02:45:22;5.70;;;3.13;;
85204;SDS011;75582;47.444;21.396;2024-02-23T02:46:48;5.60;;;3.20;;
85204;SDS011;75582;47.444;21.396;2024-02-23T02:48:14;5.22;;;2.83;;
85204;SDS011;75582;47.444;21.396;2024-02-23T02:49:40;6.00;;;3.45;;
85204;SDS011;75582;47.444;21.396;2024-02-23T02:51:06;6.07;;;3.22;;
85204;SDS011;75582;47.444;21.396;2024-02-23T02:52:32;5.18;;;3.08;;
85204;SDS011;75582;47.444;21.396;2024-02-23T02:53:58;6.93;;;3.65;;
85204;SDS011;75582;47.444;21.396;2024-02-23T02:55:24;6.07;;;4.03;;
85204;SDS011;75582;47.444;21.396;2024-02-23T02:56:50;6.90;;;4.15;;
85204;SDS011;75582;47.444;21.396;2024-02-23T02:58:19;6.05;;;3.50;;
85204;SDS011;75582;47.444;21.396;2024-02-23T02:59:45;6.75;;;3.90;;
85204;SDS011;75582;47.444;21.396;2024-02-23T03:01:11;8.43;;;4.07;;
85204;SDS011;75582;47.444;21.396;2024-02-23T03:02:37;5.97;;;3.83;;
85204;SDS011;75582;47.444;21.396;2024-02-23T03:04:03;6.78;;;3.85;;
85204;SDS011;75582;47.444;21.396;2024-02-23T03:05:29;5.88;;;3.78;;
85204;SDS011;75582;47.444;21.396;2024-02-23T03:06:55;5.55;;;3.72;;
85204;SDS011;75582;47.444;21.396;2024-02-23T03:08:21;7.60;;;3.40;;
85204;SDS011;75582;47.444;21.396;2024-02-23T03:09:47;5.70;;;3.85;;
85204;SDS011;75582;47.444;21.396;2024-02-23T03:11:14;6.28;;;3.83;;
85204;SDS011;75582;47.444;21.396;2024-02-23T03:12:47;5.65;;;3.28;;
85204;SDS011;75582;47.444;21.396;2024-02-23T03:14:20;7.57;;;3.53;;
85204;SDS011;75582;47.444;21.396;2024-02-23T03:15:47;6.80;;;3.37;;
85204;SDS011;75582;47.444;21.396;2024-02-23T03:17:13;7.50;;;3.72;;
85204;SDS011;75582;47.444;21.396;2024-02-23T03:18:45;5.25;;;3.28;;
85204;SDS011;75582;47.444;21.396;2024-02-23T03:20:12;5.15;;;2.83;;
85204;SDS011;75582;47.444;21.396;2024-02-23T03:21:38;8.82;;;2.58;;
85204;SDS011;75582;47.444;21.396;2024-02-23T03:23:04;7.22;;;3.15;;
85204;SDS011;75582;47.444;21.396;2024-02-23T03:24:30;6.13;;;3.17;;
85204;SDS011;75582;47.444;21.396;2024-02-23T03:25:56;6.35;;;3.30;;
85204;SDS011;75582;47.444;21.396;2024-02-23T03:27:27;4.43;;;2.78;;
85204;SDS011;75582;47.444;21.396;2024-02-23T03:28:57;5.28;;;2.90;;
85204;SDS011;75582;47.444;21.396;2024-02-23T03:30:23;7.53;;;3.50;;
85204;SDS011;75582;47.444;21.396;2024-02-23T03:31:50;6.22;;;3.28;;
85204;SDS011;75582;47.444;21.396;2024-02-23T03:33:16;5.90;;;3.35;;
85204;SDS011;75582;47.444;21.396;2024-02-23T03:34:42;5.53;;;3.75;;
85204;SDS011;75582;47.444;21.396;2024-02-23T03:36:09;8.00;;;3.45;;
85204;SDS011;75582;47.444;21.396;2024-02-23T03:37:35;5.25;;;3.35;;
85204;SDS011;75582;47.444;21.396;2024-02-23T03:39:01;6.10;;;3.25;;
85204;SDS011;75582;47.444;21.396;2024-02-23T03:40:27;6.85;;;3.92;;
85204;SDS011;75582;47.444;21.396;2024-02-23T03:41:53;7.57;;;4.30;;
85204;SDS011;75582;47.444;21.396;2024-02-23T03:43:19;6.65;;;3.22;;
85204;SDS011;75582;47.444;21.396;2024-02-23T03:44:45;7.83;;;4.03;;
85204;SDS011;75582;47.444;21.396;2024-02-23T03:46:11;7.53;;;3.45;;
85204;SDS011;75582;47.444;21.396;2024-02-23T03:47:37;6.00;;;3.35;;
85204;SDS011;75582;47.444;21.396;2024-02-23T03:49:04;6.07;;;3.92;;
85204;SDS011;75582;47.444;21.396;2024-02-23T03:50:30;6.43;;;3.88;;
85204;SDS011;75582;47.444;21.396;2024-02-23T03:51:56;7.22;;;3.65;;
85204;SDS011;75582;47.444;21.396;2024-02-23T03:53:22;6.82;;;3.50;;
85204;SDS011;75582;47.444;21.396;2024-02-23T03:54:48;6.90;;;3.47;;
85204;SDS011;75582;47.444;21.396;2024-02-23T03:56:15;5.63;;;3.30;;
85204;SDS011;75582;47.444;21.396;2024-02-23T03:57:41;6.28;;;3.17;;
85204;SDS011;75582;47.444;21.396;2024-02-23T03:59:07;8.17;;;2.77;;
85204;SDS011;75582;47.444;21.396;2024-02-23T04:00:34;6.00;;;2.92;;
85204;SDS011;75582;47.444;21.396;2024-02-23T04:02:00;5.18;;;3.25;;
85204;SDS011;75582;47.444;21.396;2024-02-23T04:03:26;5.25;;;3.50;;
85204;SDS011;75582;47.444;21.396;2024-02-23T04:04:52;6.35;;;3.55;;
85204;SDS011;75582;47.444;21.396;2024-02-23T04:06:19;5.63;;;3.55;;
85204;SDS011;75582;47.444;21.396;2024-02-23T04:07:45;5.75;;;3.40;;
85204;SDS011;75582;47.444;21.396;2024-02-23T04:09:11;5.50;;;3.33;;
85204;SDS011;75582;47.444;21.396;2024-02-23T04:10:37;5.50;;;3.45;;
85204;SDS011;75582;47.444;21.396;2024-02-23T04:12:03;6.10;;;2.88;;
85204;SDS011;75582;47.444;21.396;2024-02-23T04:13:29;6.07;;;3.30;;
85204;SDS011;75582;47.444;21.396;2024-02-23T04:14:55;5.45;;;2.60;;
85204;SDS011;75582;47.444;21.396;2024-02-23T04:16:24;5.63;;;2.60;;
85204;SDS011;75582;47.444;21.396;2024-02-23T04:17:50;5.07;;;2.92;;
85204;SDS011;75582;47.444;21.396;2024-02-23T04:19:23;6.18;;;3.00;;
85204;SDS011;75582;47.444;21.396;2024-02-23T04:20:49;5.88;;;2.72;;
85204;SDS011;75582;47.444;21.396;2024-02-23T04:22:15;7.15;;;2.72;;
85204;SDS011;75582;47.444;21.396;2024-02-23T04:23:41;4.63;;;2.60;;
85204;SDS011;75582;47.444;21.396;2024-02-23T04:25:08;5.65;;;3.22;;
85204;SDS011;75582;47.444;21.396;2024-02-23T04:26:34;5.32;;;2.90;;
85204;SDS011;75582;47.444;21.396;2024-02-23T04:28:01;5.40;;;2.77;;
85204;SDS011;75582;47.444;21.396;2024-02-23T04:29:27;5.93;;;3.08;;
85204;SDS011;75582;47.444;21.396;2024-02-23T04:30:53;5.13;;;3.08;;
85204;SDS011;75582;47.444;21.396;2024-02-23T04:32:19;5.65;;;3.53;;
85204;SDS011;75582;47.444;21.396;2024-02-23T04:33:45;8.15;;;3.38;;
85204;SDS011;75582;47.444;21.396;2024-02-23T04:35:11;7.07;;;3.67;;
85204;SDS011;75582;47.444;21.396;2024-02-23T04:36:37;9.20;;;3.38;;
85204;SDS011;75582;47.444;21.396;2024-02-23T04:38:03;8.15;;;4.10;;
85204;SDS011;75582;47.444;21.396;2024-02-23T04:39:29;6.43;;;3.55;;
85204;SDS011;75582;47.444;21.396;2024-02-23T04:40:56;6.18;;;3.20;;
85204;SDS011;75582;47.444;21.396;2024-02-23T04:42:22;8.20;;;4.50;;
85204;SDS011;75582;47.444;21.396;2024-02-23T04:43:48;5.85;;;3.50;;
85204;SDS011;75582;47.444;21.396;2024-02-23T04:45:14;7.68;;;3.67;;
85204;SDS011;75582;47.444;21.396;2024-02-23T04:46:40;7.15;;;4.22;;
85204;SDS011;75582;47.444;21.396;2024-02-23T04:48:06;6.78;;;4.10;;
85204;SDS011;75582;47.444;21.396;2024-02-23T04:49:33;6.50;;;4.07;;
85204;SDS011;75582;47.444;21.396;2024-02-23T04:50:59;9.60;;;5.20;;
85204;SDS011;75582;47.444;21.396;2024-02-23T04:52:25;8.10;;;5.07;;
85204;SDS011;75582;47.444;21.396;2024-02-23T04:53:51;9.02;;;4.68;;
85204;SDS011;75582;47.444;21.396;2024-02-23T04:55:17;9.88;;;4.47;;
85204;SDS011;75582;47.444;21.396;2024-02-23T04:56:43;7.07;;;4.53;;
85204;SDS011;75582;47.444;21.396;2024-02-23T04:58:09;8.57;;;4.53;;
85204;SDS011;75582;47.444;21.396;2024-02-23T04:59:37;8.77;;;4.72;;
85204;SDS011;75582;47.444;21.396;2024-02-23T05:01:03;7.78;;;4.82;;
85204;SDS011;75582;47.444;21.396;2024-02-23T05:02:29;8.02;;;5.30;;
85204;SDS011;75582;47.444;21.396;2024-02-23T05:04:00;8.77;;;4.55;;
85204;SDS011;75582;47.444;21.396;2024-02-23T05:05:26;6.80;;;4.68;;
85204;SDS011;75582;47.444;21.396;2024-02-23T05:06:52;11.07;;;5.10;;
85204;SDS011;75582;47.444;21.396;2024-02-23T05:08:19;8.82;;;4.53;;
85204;SDS011;75582;47.444;21.396;2024-02-23T05:09:46;8.25;;;4.40;;
85204;SDS011;75582;47.444;21.396;2024-02-23T05:11:14;10.93;;;5.40;;
85204;SDS011;75582;47.444;21.396;2024-02-23T05:12:41;9.23;;;5.35;;
85204;SDS011;75582;47.444;21.396;2024-02-23T05:14:07;8.10;;;4.60;;
85204;SDS011;75582;47.444;21.396;2024-02-23T05:15:33;14.40;;;6.07;;
85204;SDS011;75582;47.444;21.396;2024-02-23T05:16:59;9.35;;;5.22;;
85204;SDS011;75582;47.444;21.396;2024-02-23T05:18:31;8.38;;;5.00;;
85204;SDS011;75582;47.444;21.396;2024-02-23T05:19:57;7.50;;;4.65;;
85204;SDS011;75582;47.444;21.396;2024-02-23T05:21:23;8.52;;;5.40;;
85204;SDS011;75582;47.444;21.396;2024-02-23T05:22:49;9.50;;;5.38;;
85204;SDS011;75582;47.444;21.396;2024-02-23T05:24:15;10.23;;;5.93;;
85204;SDS011;75582;47.444;21.396;2024-02-23T05:25:41;8.90;;;5.87;;
85204;SDS011;75582;47.444;21.396;2024-02-23T05:27:07;11.13;;;6.60;;
85204;SDS011;75582;47.444;21.396;2024-02-23T05:28:33;10.18;;;6.50;;
85204;SDS011;75582;47.444;21.396;2024-02-23T05:29:59;9.38;;;6.07;;
85204;SDS011;75582;47.444;21.396;2024-02-23T05:31:44;9.40;;;5.70;;
85204;SDS011;75582;47.444;21.396;2024-02-23T05:33:17;9.30;;;5.47;;
85204;SDS011;75582;47.444;21.396;2024-02-23T05:34:46;9.73;;;5.60;;
85204;SDS011;75582;47.444;21.396;2024-02-23T05:36:16;9.02;;;5.60;;
85204;SDS011;75582;47.444;21.396;2024-02-23T05:37:44;9.88;;;5.78;;
85204;SDS011;75582;47.444;21.396;2024-02-23T05:39:10;9.50;;;5.75;;
85204;SDS011;75582;47.444;21.396;2024-02-23T05:40:36;8.97;;;5.30;;
85204;SDS011;75582;47.444;21.396;2024-02-23T05:42:02;10.15;;;5.97;;
85204;SDS011;75582;47.444;21.396;2024-02-23T05:43:29;11.55;;;5.80;;
85204;SDS011;75582;47.444;21.396;2024-02-23T05:44:55;9.13;;;5.25;;
85204;SDS011;75582;47.444;21.396;2024-02-23T05:46:21;9.85;;;5.78;;
85204;SDS011;75582;47.444;21.396;2024-02-23T05:47:47;8.98;;;5.28;;
85204;SDS011;75582;47.444;21.396;2024-02-23T05:49:13;9.85;;;5.60;;
85204;SDS011;75582;47.444;21.396;2024-02-23T05:50:39;10.60;;;5.07;;
85204;SDS011;75582;47.444;21.396;2024-02-23T05:52:05;9.00;;;4.50;;
85204;SDS011;75582;47.444;21.396;2024-02-23T05:53:31;12.65;;;4.90;;
85204;SDS011;75582;47.444;21.396;2024-02-23T05:54:58;8.43;;;5.30;;
85204;SDS011;75582;47.444;21.396;2024-02-23T05:56:25;9.95;;;4.97;;
85204;SDS011;75582;47.444;21.396;2024-02-23T05:57:51;9.25;;;5.22;;
85204;SDS011;75582;47.444;21.396;2024-02-23T05:59:17;10.15;;;5.63;;
85204;SDS011;75582;47.444;21.396;2024-02-23T06:00:43;11.85;;;5.70;;
85204;SDS011;75582;47.444;21.396;2024-02-23T06:02:09;13.07;;;5.68;;
85204;SDS011;75582;47.444;21.396;2024-02-23T06:03:35;8.10;;;4.95;;
85204;SDS011;75582;47.444;21.396;2024-02-23T06:05:01;9.55;;;5.13;;
85204;SDS011;75582;47.444;21.396;2024-02-23T06:06:28;9.32;;;5.20;;
85204;SDS011;75582;47.444;21.396;2024-02-23T06:07:54;8.27;;;5.47;;
85204;SDS011;75582;47.444;21.396;2024-02-23T06:09:20;10.63;;;5.80;;
85204;SDS011;75582;47.444;21.396;2024-02-23T06:10:46;9.27;;;5.18;;
85204;SDS011;75582;47.444;21.396;2024-02-23T06:12:12;9.60;;;5.70;;
85204;SDS011;75582;47.444;21.396;2024-02-23T06:13:38;10.27;;;5.78;;
85204;SDS011;75582;47.444;21.396;2024-02-23T06:15:04;8.98;;;5.65;;
85204;SDS011;75582;47.444;21.396;2024-02-23T06:16:31;11.90;;;6.18;;
85204;SDS011;75582;47.444;21.396;2024-02-23T06:17:57;11.52;;;5.90;;
85204;SDS011;75582;47.444;21.396;2024-02-23T06:19:30;8.55;;;5.63;;
85204;SDS011;75582;47.444;21.396;2024-02-23T06:20:56;12.32;;;5.95;;
85204;SDS011;75582;47.444;21.396;2024-02-23T06:22:22;10.10;;;5.40;;
85204;SDS011;75582;47.444;21.396;2024-02-23T06:23:49;11.60;;;6.07;;
85204;SDS011;75582;47.444;21.396;2024-02-23T06:25:15;8.98;;;5.50;;
85204;SDS011;75582;47.444;21.396;2024-02-23T06:26:41;12.93;;;5.70;;
85204;SDS011;75582;47.444;21.396;2024-02-23T06:28:07;12.40;;;6.88;;
85204;SDS011;75582;47.444;21.396;2024-02-23T06:29:33;15.32;;;7.70;;
85204;SDS011;75582;47.444;21.396;2024-02-23T06:30:59;11.40;;;6.10;;
85204;SDS011;75582;47.444;21.396;2024-02-23T06:32:25;10.85;;;5.97;;
85204;SDS011;75582;47.444;21.396;2024-02-23T06:33:51;10.00;;;5.68;;
85204;SDS011;75582;47.444;21.396;2024-02-23T06:35:17;9.57;;;5.53;;
85204;SDS011;75582;47.444;21.396;2024-02-23T06:36:43;11.27;;;6.00;;
85204;SDS011;75582;47.444;21.396;2024-02-23T06:38:09;8.47;;;5.30;;
85204;SDS011;75582;47.444;21.396;2024-02-23T06:39:35;7.68;;;5.10;;
85204;SDS011;75582;47.444;21.396;2024-02-23T06:41:00;8.55;;;4.95;;
85204;SDS011;75582;47.444;21.396;2024-02-23T06:42:27;10.65;;;5.20;;
85204;SDS011;75582;47.444;21.396;2024-02-23T06:43:53;9.73;;;5.15;;
85204;SDS011;75582;47.444;21.396;2024-02-23T06:47:51;10.65;;;5.63;;
85204;SDS011;75582;47.444;21.396;2024-02-23T06:49:17;8.38;;;5.28;;
85204;SDS011;75582;47.444;21.396;2024-02-23T06:50:43;10.80;;;5.47;;
85204;SDS011;75582;47.444;21.396;2024-02-23T06:52:09;8.60;;;4.97;;
85204;SDS011;75582;47.444;21.396;2024-02-23T06:53:35;9.80;;;6.40;;
85204;SDS011;75582;47.444;21.396;2024-02-23T06:55:01;14.00;;;6.28;;
85204;SDS011;75582;47.444;21.396;2024-02-23T06:56:27;11.00;;;6.18;;
85204;SDS011;75582;47.444;21.396;2024-02-23T06:57:53;8.57;;;5.43;;
85204;SDS011;75582;47.444;21.396;2024-02-23T06:59:19;9.63;;;5.65;;
85204;SDS011;75582;47.444;21.396;2024-02-23T07:00:45;12.52;;;6.28;;
85204;SDS011;75582;47.444;21.396;2024-02-23T07:02:12;11.80;;;5.10;;
85204;SDS011;75582;47.444;21.396;2024-02-23T07:03:38;11.20;;;5.20;;
85204;SDS011;75582;47.444;21.396;2024-02-23T07:05:05;11.40;;;6.20;;
85204;SDS011;75582;47.444;21.396;2024-02-23T07:06:31;8.55;;;5.32;;
85204;SDS011;75582;47.444;21.396;2024-02-23T07:07:57;7.50;;;4.77;;
85204;SDS011;75582;47.444;21.396;2024-02-23T07:09:23;9.95;;;5.82;;
85204;SDS011;75582;47.444;21.396;2024-02-23T07:10:49;8.70;;;6.10;;
85204;SDS011;75582;47.444;21.396;2024-02-23T07:12:15;9.93;;;5.95;;
85204;SDS011;75582;47.444;21.396;2024-02-23T07:13:44;11.60;;;5.80;;
85204;SDS011;75582;47.444;21.396;2024-02-23T07:15:10;12.70;;;5.72;;
85204;SDS011;75582;47.444;21.396;2024-02-23T07:16:39;9.55;;;5.50;;
85204;SDS011;75582;47.444;21.396;2024-02-23T07:18:12;9.60;;;5.68;;
85204;SDS011;75582;47.444;21.396;2024-02-23T07:19:38;11.25;;;5.88;;
85204;SDS011;75582;47.444;21.396;2024-02-23T07:21:11;9.63;;;5.78;;
85204;SDS011;75582;47.444;21.396;2024-02-23T07:22:37;10.77;;;5.53;;
85204;SDS011;75582;47.444;21.396;2024-02-23T07:24:03;11.07;;;6.05;;
85204;SDS011;75582;47.444;21.396;2024-02-23T07:25:29;11.73;;;6.30;;
85204;SDS011;75582;47.444;21.396;2024-02-23T07:26:55;11.45;;;6.22;;
85204;SDS011;75582;47.444;21.396;2024-02-23T07:28:24;10.10;;;5.82;;
85204;SDS011;75582;47.444;21.396;2024-02-23T07:29:50;13.05;;;6.30;;
85204;SDS011;75582;47.444;21.396;2024-02-23T07:31:16;11.80;;;6.82;;
85204;SDS011;75582;47.444;21.396;2024-02-23T07:32:44;11.98;;;6.45;;
85204;SDS011;75582;47.444;21.396;2024-02-23T07:34:12;12.50;;;6.20;;
85204;SDS011;75582;47.444;21.396;2024-02-23T07:35:38;10.88;;;6.30;;
85204;SDS011;75582;47.444;21.396;2024-02-23T07:37:04;13.87;;;6.93;;
85204;SDS011;75582;47.444;21.396;2024-02-23T07:38:30;10.32;;;6.22;;
85204;SDS011;75582;47.444;21.396;2024-02-23T07:39:56;9.60;;;5.78;;
85204;SDS011;75582;47.444;21.396;2024-02-23T07:41:22;10.02;;;5.85;;
85204;SDS011;75582;47.444;21.396;2024-02-23T07:42:48;12.30;;;6.35;;
85204;SDS011;75582;47.444;21.396;2024-02-23T07:44:14;12.55;;;6.07;;
85204;SDS011;75582;47.444;21.396;2024-02-23T07:45:40;10.77;;;6.00;;
85204;SDS011;75582;47.444;21.396;2024-02-23T07:47:06;9.75;;;6.03;;
85204;SDS011;75582;47.444;21.396;2024-02-23T07:48:32;10.77;;;6.22;;
85204;SDS011;75582;47.444;21.396;2024-02-23T07:49:58;12.13;;;6.68;;
85204;SDS011;75582;47.444;21.396;2024-02-23T07:51:24;11.20;;;6.80;;
85204;SDS011;75582;47.444;21.396;2024-02-23T07:52:50;12.88;;;6.75;;
85204;SDS011;75582;47.444;21.396;2024-02-23T07:54:16;13.32;;;7.28;;
85204;SDS011;75582;47.444;21.396;2024-02-23T07:55:42;10.50;;;5.97;;
85204;SDS011;75582;47.444;21.396;2024-02-23T07:57:08;10.48;;;6.45;;
85204;SDS011;75582;47.444;21.396;2024-02-23T07:58:34;9.93;;;6.50;;
85204;SDS011;75582;47.444;21.396;2024-02-23T08:00:00;10.75;;;6.78;;
85204;SDS011;75582;47.444;21.396;2024-02-23T08:01:29;11.30;;;6.03;;
85204;SDS011;75582;47.444;21.396;2024-02-23T08:02:55;9.10;;;6.82;;
85204;SDS011;75582;47.444;21.396;2024-02-23T08:04:22;11.00;;;7.25;;
85204;SDS011;75582;47.444;21.396;2024-02-23T08:05:48;10.53;;;7.00;;
85204;SDS011;75582;47.444;21.396;2024-02-23T08:07:14;11.95;;;6.95;;
85204;SDS011;75582;47.444;21.396;2024-02-23T08:08:40;8.88;;;6.10;;
85204;SDS011;75582;47.444;21.396;2024-02-23T08:10:06;8.13;;;5.00;;
85204;SDS011;75582;47.444;21.396;2024-02-23T08:11:32;8.57;;;5.25;;
85204;SDS011;75582;47.444;21.396;2024-02-23T08:12:58;8.23;;;5.50;;
85204;SDS011;75582;47.444;21.396;2024-02-23T08:14:25;8.55;;;5.68;;
85204;SDS011;75582;47.444;21.396;2024-02-23T08:15:51;10.25;;;6.00;;
85204;SDS011;75582;47.444;21.396;2024-02-23T08:17:17;10.75;;;6.00;;
85204;SDS011;75582;47.444;21.396;2024-02-23T08:18:43;11.02;;;6.25;;
85204;SDS011;75582;47.444;21.396;2024-02-23T08:20:09;9.80;;;6.17;;
85204;SDS011;75582;47.444;21.396;2024-02-23T08:21:35;10.38;;;6.30;;
85204;SDS011;75582;47.444;21.396;2024-02-23T08:23:01;10.20;;;6.63;;
85204;SDS011;75582;47.444;21.396;2024-02-23T08:24:29;10.02;;;6.63;;
85204;SDS011;75582;47.444;21.396;2024-02-23T08:25:55;11.48;;;6.78;;
85204;SDS011;75582;47.444;21.396;2024-02-23T08:27:26;13.82;;;7.28;;
85204;SDS011;75582;47.444;21.396;2024-02-23T08:28:52;10.43;;;5.80;;
85204;SDS011;75582;47.444;21.396;2024-02-23T08:30:18;14.38;;;6.70;;
85204;SDS011;75582;47.444;21.396;2024-02-23T08:31:45;10.00;;;5.97;;
85204;SDS011;75582;47.444;21.396;2024-02-23T08:33:13;11.45;;;6.43;;